createdAt,value
2023-04-25T00:01:52.385Z,13.98
2023-04-25T00:04:19.253Z,13.96
2023-04-25T00:06:46.003Z,13.96
2023-04-25T00:09:12.466Z,13.98
2023-04-25T00:11:39.070Z,13.98
2023-04-25T00:14:05.861Z,14.02
2023-04-25T00:16:34.907Z,14.03
2023-04-25T00:19:02.465Z,14.02
2023-04-25T00:21:29.298Z,14.02
2023-04-25T00:23:56.514Z,14.04
2023-04-25T00:26:23.010Z,14.07
2023-04-25T00:28:49.596Z,14.07
2023-04-25T00:31:16.085Z,14.07
2023-04-25T00:33:42.548Z,14.08
2023-04-25T00:36:09.311Z,14.12
2023-04-25T00:38:35.779Z,14.14
2023-04-25T00:41:02.271Z,14.17
2023-04-25T00:43:31.344Z,14.20
2023-04-25T00:45:58.664Z,14.26
2023-04-25T00:48:25.182Z,14.27
2023-04-25T00:50:55.490Z,14.30
2023-04-25T00:53:22.149Z,14.31
2023-04-25T00:55:48.952Z,14.31
2023-04-25T00:58:15.570Z,14.30
2023-04-25T01:00:42.950Z,14.27
2023-04-25T01:03:11.211Z,14.23
2023-04-25T01:05:37.780Z,14.19
2023-04-25T01:08:04.482Z,14.18
2023-04-25T01:10:31.102Z,14.16
2023-04-25T01:12:57.534Z,14.11
2023-04-25T01:15:24.041Z,14.08
2023-04-25T01:17:50.705Z,14.06
2023-04-25T01:20:17.679Z,14.04
2023-04-25T01:22:44.497Z,14.00
2023-04-25T01:25:11.449Z,13.98
2023-04-25T01:27:38.549Z,13.99
2023-04-25T01:30:05.568Z,13.95
2023-04-25T01:32:39.384Z,13.84
2023-04-25T01:35:10.522Z,13.70
2023-04-25T01:37:42.707Z,13.71
2023-04-25T01:40:12.938Z,13.74
2023-04-25T01:42:40.970Z,13.74
2023-04-25T01:45:08.487Z,13.75
2023-04-25T01:47:36.218Z,13.75
2023-04-25T01:50:03.895Z,13.67
2023-04-25T01:52:30.516Z,13.68
2023-04-25T01:54:58.228Z,13.66
2023-04-25T01:57:24.701Z,13.67
2023-04-25T01:59:51.261Z,13.66
2023-04-25T02:02:17.847Z,13.66
2023-04-25T02:04:44.773Z,13.72
2023-04-25T02:07:11.348Z,13.70
2023-04-25T02:09:37.863Z,13.69
2023-04-25T02:12:04.457Z,13.70
2023-04-25T02:14:30.937Z,13.69
2023-04-25T02:16:58.303Z,13.70
2023-04-25T02:19:24.885Z,13.75
2023-04-25T02:21:51.330Z,13.76
2023-04-25T02:24:17.929Z,13.79
2023-04-25T02:26:45.217Z,13.81
2023-04-25T02:29:11.606Z,13.79
2023-04-25T02:31:38.154Z,13.75
2023-04-25T02:34:05.502Z,13.74
2023-04-25T02:36:35.219Z,13.71
2023-04-25T02:39:01.799Z,13.69
2023-04-25T02:41:28.206Z,13.68
2023-04-25T02:43:54.765Z,13.69
2023-04-25T02:46:32.183Z,13.69
2023-04-25T02:49:04.728Z,13.68
2023-04-25T02:51:31.411Z,13.70
2023-04-25T02:53:57.873Z,13.71
2023-04-25T02:56:24.486Z,13.77
2023-04-25T02:58:51.144Z,13.86
2023-04-25T03:01:17.638Z,13.92
2023-04-25T03:03:44.463Z,13.99
2023-04-25T03:06:10.916Z,14.03
2023-04-25T03:08:37.415Z,14.05
2023-04-25T03:11:03.972Z,14.09
2023-04-25T03:13:31.048Z,14.09
2023-04-25T03:15:57.576Z,14.07
2023-04-25T03:18:24.073Z,14.09
2023-04-25T03:20:50.569Z,14.10
2023-04-25T03:23:17.050Z,14.06
2023-04-25T03:25:43.892Z,14.07
2023-04-25T03:28:10.656Z,14.12
2023-04-25T03:30:37.150Z,14.19
2023-04-25T03:33:03.752Z,14.23
2023-04-25T03:35:30.257Z,14.26
2023-04-25T03:37:56.680Z,14.27
2023-04-25T03:40:23.226Z,14.20
2023-04-25T03:42:49.626Z,14.16
2023-04-25T03:45:16.114Z,14.12
2023-04-25T03:47:42.708Z,14.07
2023-04-25T03:50:09.377Z,14.01
2023-04-25T03:52:35.937Z,13.94
2023-04-25T03:55:02.433Z,13.89
2023-04-25T03:57:28.937Z,13.81
2023-04-25T03:59:55.616Z,13.78
2023-04-25T04:02:22.162Z,13.71
2023-04-25T04:04:48.999Z,13.69
2023-04-25T04:07:15.566Z,13.67
2023-04-25T04:09:42.019Z,13.71
2023-04-25T04:12:08.446Z,13.74
2023-04-25T04:14:35.214Z,13.76
2023-04-25T04:17:01.639Z,13.84
2023-04-25T04:19:28.081Z,13.89
2023-04-25T04:21:54.489Z,13.94
2023-04-25T04:24:20.934Z,13.96
2023-04-25T04:26:47.369Z,13.99
2023-04-25T04:29:21.578Z,13.98
2023-04-25T04:31:49.195Z,13.97
2023-04-25T04:34:17.571Z,14.02
2023-04-25T04:36:44.151Z,14.12
2023-04-25T04:39:10.614Z,14.20
2023-04-25T04:41:37.225Z,14.24
2023-04-25T04:44:04.118Z,14.12
2023-04-25T04:46:32.263Z,13.97
2023-04-25T04:48:59.689Z,13.85
2023-04-25T04:51:26.624Z,13.81
2023-04-25T04:53:53.362Z,13.78
2023-04-25T04:56:21.972Z,13.78
2023-04-25T04:58:50.155Z,13.77
2023-04-25T05:01:17.186Z,13.81
2023-04-25T05:03:43.861Z,13.75
2023-04-25T05:06:10.605Z,13.69
2023-04-25T05:08:37.690Z,13.66
2023-04-25T05:11:04.308Z,13.63
2023-04-25T05:13:30.825Z,13.62
2023-04-25T05:15:57.277Z,13.64
2023-04-25T05:18:23.980Z,13.62
2023-04-25T05:20:50.476Z,13.66
2023-04-25T05:23:17.352Z,13.67
2023-04-25T05:25:43.752Z,13.67
2023-04-25T05:28:10.230Z,13.67
2023-04-25T05:30:36.692Z,13.67
2023-04-25T05:33:03.228Z,13.76
2023-04-25T05:35:29.805Z,12.81
2023-04-25T05:37:56.297Z,11.44
2023-04-25T05:40:22.739Z,10.13
2023-04-25T05:42:49.231Z,9.65
2023-04-25T05:45:15.704Z,9.66
2023-04-25T05:47:42.174Z,9.79
2023-04-25T05:50:09.635Z,9.88
2023-04-25T05:52:36.160Z,9.91
2023-04-25T05:55:02.949Z,10.07
2023-04-25T05:57:29.448Z,10.19
2023-04-25T05:59:55.952Z,10.26
2023-04-25T06:02:22.816Z,10.34
2023-04-25T06:04:52.871Z,10.44
2023-04-25T06:07:20.967Z,10.50
2023-04-25T06:09:47.491Z,10.57
2023-04-25T06:12:13.938Z,10.72
2023-04-25T06:14:40.348Z,11.08
2023-04-25T06:17:09.831Z,11.43
2023-04-25T06:19:37.138Z,11.52
2023-04-25T06:22:03.667Z,11.40
2023-04-25T06:24:30.221Z,11.36
2023-04-25T06:26:56.614Z,11.40
2023-04-25T06:29:23.107Z,11.46
2023-04-25T06:31:49.608Z,11.41
2023-04-25T06:34:16.376Z,11.42
2023-04-25T06:36:42.851Z,11.41
2023-04-25T06:39:10.016Z,11.42
2023-04-25T06:41:36.563Z,11.47
2023-04-25T06:44:03.003Z,11.48
2023-04-25T06:46:29.539Z,11.52
2023-04-25T06:48:56.321Z,11.50
2023-04-25T06:51:24.322Z,11.53
2023-04-25T06:53:51.216Z,11.54
2023-04-25T06:56:17.867Z,11.64
2023-04-25T06:58:44.331Z,11.65
2023-04-25T07:01:10.883Z,11.72
2023-04-25T07:03:39.211Z,11.73
2023-04-25T07:06:05.903Z,11.85
2023-04-25T07:08:32.346Z,11.89
2023-04-25T07:10:58.769Z,11.94
2023-04-25T07:13:25.278Z,12.03
2023-04-25T07:15:51.881Z,12.25
2023-04-25T07:18:18.245Z,12.43
2023-04-25T07:20:44.827Z,12.67
2023-04-25T07:23:11.395Z,13.13
2023-04-25T07:25:37.887Z,13.52
2023-04-25T07:28:04.298Z,13.57
2023-04-25T07:30:30.896Z,13.38
2023-04-25T07:32:57.326Z,12.96
2023-04-25T07:35:23.881Z,12.78
2023-04-25T07:37:50.298Z,12.63
2023-04-25T07:40:17.615Z,12.27
2023-04-25T07:42:44.058Z,12.05
2023-04-25T07:45:10.735Z,11.93
2023-04-25T07:47:37.334Z,11.77
2023-04-25T07:50:04.553Z,11.71
2023-04-25T07:52:30.974Z,11.71
2023-04-25T07:54:58.520Z,11.67
2023-04-25T07:57:25.359Z,11.76
2023-04-25T07:59:51.822Z,11.81
2023-04-25T08:02:18.381Z,11.85
2023-04-25T08:04:45.155Z,11.83
2023-04-25T08:07:11.934Z,11.92
2023-04-25T08:09:38.416Z,12.01
2023-04-25T08:12:05.122Z,12.03
2023-04-25T08:14:36.604Z,12.14
2023-04-25T08:17:04.414Z,12.19
2023-04-25T08:19:31.697Z,12.21
2023-04-25T08:21:58.217Z,12.23
2023-04-25T08:24:24.667Z,12.31
2023-04-25T08:26:51.070Z,12.48
2023-04-25T08:29:17.498Z,12.61
2023-04-25T08:31:44.011Z,12.65
2023-04-25T08:34:10.821Z,13.00
2023-04-25T08:36:39.616Z,14.30
2023-04-25T08:39:06.590Z,15.04
2023-04-25T08:41:33.232Z,15.63
2023-04-25T08:44:01.542Z,16.53
2023-04-25T08:46:28.124Z,17.52
2023-04-25T08:48:59.375Z,17.84
2023-04-25T08:51:26.933Z,17.96
2023-04-25T08:53:54.401Z,17.83
2023-04-25T08:56:25.249Z,17.96
2023-04-25T08:58:52.019Z,18.13
2023-04-25T09:01:21.891Z,18.10
2023-04-25T09:03:48.959Z,18.51
2023-04-25T09:06:17.293Z,18.51
2023-04-25T09:08:43.873Z,17.95
2023-04-25T09:11:10.418Z,17.94
2023-04-25T09:13:37.086Z,18.40
2023-04-25T09:16:03.575Z,18.44
2023-04-25T09:18:34.146Z,18.20
2023-04-25T09:21:14.760Z,19.28
2023-04-25T09:23:48.756Z,18.22
2023-04-25T09:26:16.506Z,18.99
2023-04-25T09:28:44.060Z,18.31
2023-04-25T09:31:13.460Z,19.01
2023-04-25T09:33:41.748Z,18.89
2023-04-25T09:36:14.676Z,19.28
2023-04-25T09:38:42.442Z,19.66
2023-04-25T09:41:10.020Z,20.19
2023-04-25T09:43:37.037Z,20.15
2023-04-25T09:46:03.901Z,20.41
2023-04-25T09:48:30.721Z,19.73
2023-04-25T09:51:10.794Z,19.67
2023-04-25T09:53:41.077Z,20.05
2023-04-25T09:56:08.798Z,19.24
2023-04-25T09:58:36.679Z,18.93
2023-04-25T10:01:04.998Z,18.43
2023-04-25T10:03:32.857Z,18.52
2023-04-25T10:06:03.888Z,18.44
2023-04-25T10:08:33.690Z,18.16
2023-04-25T10:11:01.836Z,18.68
2023-04-25T10:13:29.551Z,17.97
2023-04-25T10:15:56.502Z,18.00
2023-04-25T10:18:23.590Z,17.93
2023-04-25T10:20:50.026Z,17.40
2023-04-25T10:23:18.006Z,17.55
2023-04-25T10:25:44.874Z,17.45
2023-04-25T10:28:11.502Z,17.23
2023-04-25T10:30:38.029Z,17.12
2023-04-25T10:33:17.113Z,17.22
2023-04-25T10:35:45.949Z,16.82
2023-04-25T10:38:14.968Z,16.88
2023-04-25T10:40:41.465Z,16.55
2023-04-25T10:43:26.793Z,16.44
2023-04-25T10:45:53.611Z,16.62
2023-04-25T10:48:29.832Z,16.66
2023-04-25T10:51:09.175Z,16.43
2023-04-25T10:53:35.867Z,16.76
2023-04-25T10:56:11.106Z,16.49
2023-04-25T10:58:43.038Z,16.47
2023-04-25T11:01:09.533Z,16.66
2023-04-25T11:03:43.470Z,16.69
2023-04-25T11:06:20.129Z,16.81
2023-04-25T11:08:51.144Z,16.46
2023-04-25T11:11:21.023Z,16.72
2023-04-25T11:13:51.187Z,16.60
2023-04-25T11:18:50.150Z,16.95
2023-04-25T11:21:16.848Z,17.08
2023-04-25T11:23:46.472Z,17.16
2023-04-25T11:26:14.036Z,17.63
2023-04-25T11:28:40.524Z,17.03
2023-04-25T11:31:07.476Z,17.57
2023-04-25T11:33:33.899Z,17.82
2023-04-25T11:36:00.845Z,17.61
2023-04-25T11:38:28.052Z,17.87
2023-04-25T11:40:56.180Z,17.43
2023-04-25T11:43:22.966Z,16.88
2023-04-25T11:45:53.364Z,17.14
2023-04-25T11:48:25.789Z,17.18
2023-04-25T11:50:53.267Z,17.08
2023-04-25T11:53:19.777Z,17.16
2023-04-25T11:55:46.355Z,17.70
2023-04-25T11:58:14.814Z,18.01
2023-04-25T12:00:50.001Z,17.83
2023-04-25T12:03:18.947Z,17.68
2023-04-25T12:05:46.554Z,17.67
2023-04-25T12:08:14.374Z,17.65
2023-04-25T12:10:41.577Z,17.40
2023-04-25T12:13:27.710Z,17.38
2023-04-25T12:15:57.590Z,17.40
2023-04-25T12:18:24.908Z,17.43
2023-04-25T12:20:51.475Z,17.30
2023-04-25T12:23:17.956Z,16.92
2023-04-25T12:25:46.078Z,17.03
2023-04-25T12:28:13.470Z,16.72
2023-04-25T12:30:55.321Z,16.72
2023-04-25T12:33:23.051Z,16.61
2023-04-25T12:35:49.672Z,16.63
2023-04-25T12:38:26.306Z,16.46
2023-04-25T12:40:53.120Z,16.32
2023-04-25T12:43:19.554Z,16.19
2023-04-25T12:45:48.345Z,15.98
2023-04-25T12:48:14.836Z,15.87
2023-04-25T12:50:42.118Z,15.76
2023-04-25T12:53:08.552Z,15.54
2023-04-25T12:55:35.052Z,15.38
2023-04-25T12:58:01.499Z,15.24
2023-04-25T13:00:28.034Z,15.21
2023-04-25T13:02:54.746Z,15.15
2023-04-25T13:05:21.387Z,14.99
2023-04-25T13:07:47.857Z,14.97
2023-04-25T13:10:14.363Z,14.76
2023-04-25T13:12:40.767Z,14.60
2023-04-25T13:15:10.226Z,14.60
2023-04-25T13:17:36.686Z,14.53
2023-04-25T13:20:05.212Z,14.44
2023-04-25T13:22:31.707Z,14.38
2023-04-25T13:24:58.449Z,14.08
2023-04-25T13:27:24.948Z,13.84
2023-04-25T13:29:51.401Z,13.82
2023-04-25T13:32:17.923Z,13.87
2023-04-25T13:34:44.483Z,13.93
2023-04-25T13:37:11.328Z,13.79
2023-04-25T13:39:37.738Z,13.76
2023-04-25T13:42:04.202Z,13.62
2023-04-25T13:44:30.761Z,13.70
2023-04-25T13:48:14.215Z,13.62
2023-04-25T13:50:40.962Z,13.68
2023-04-25T13:53:07.585Z,13.78
2023-04-25T13:55:37.052Z,13.80
2023-04-25T13:58:08.587Z,13.79
2023-04-25T14:00:39.379Z,13.59
2023-04-25T14:03:08.846Z,13.44
2023-04-25T14:05:40.466Z,13.46
2023-04-25T14:08:08.931Z,13.53
2023-04-25T14:10:36.776Z,13.54
2023-04-25T14:13:04.383Z,13.67
2023-04-25T14:15:34.746Z,13.46
2023-04-25T14:18:02.240Z,13.43
2023-04-25T14:20:29.491Z,13.41
2023-04-25T14:22:57.218Z,13.55
2023-04-25T14:25:24.513Z,13.63
2023-04-25T14:27:51.785Z,13.69
2023-04-25T14:30:22.488Z,13.69
2023-04-25T14:32:52.136Z,13.76
2023-04-25T14:35:19.015Z,13.74
2023-04-25T14:37:45.654Z,13.65
2023-04-25T14:40:13.977Z,13.79
2023-04-25T14:42:41.003Z,13.60
2023-04-25T14:45:09.765Z,13.75
2023-04-25T14:47:37.516Z,13.75
2023-04-25T14:50:05.634Z,13.68
2023-04-25T14:52:32.430Z,13.82
2023-04-25T14:55:01.150Z,14.08
2023-04-25T14:57:27.819Z,14.14
2023-04-25T14:59:54.356Z,14.45
2023-04-25T15:02:21.111Z,14.39
2023-04-25T15:04:47.938Z,14.58
2023-04-25T15:07:16.443Z,14.41
2023-04-25T15:09:44.949Z,14.52
2023-04-25T15:12:12.019Z,14.52
2023-04-25T15:14:38.731Z,14.21
2023-04-25T15:17:05.363Z,14.53
2023-04-25T15:19:32.058Z,14.65
2023-04-25T15:22:01.573Z,14.61
